Other Surface Observations
Issued by NWS Great Falls, MT

Home | Current Version | Previous Version | Text Only | Print | Product List | Glossary On
Versions: 1 2 3 4 5 6 7 8 9 10 11 12 13 14 15 16 17 18 19 20 21 22 23 24 25 26 27 28 29 30 31 32 33 34 35 36 37 38 39 40 41 42 43 44 45 46 47 48 49 50
000
SXUS55 KTFX 251708
OSOTFX

AREA AWOS OBSERVATIONS
NATIONAL WEATHER SERVICE GREAT FALLS MT
1107 AM MDT Thu Aug 25 2016

METAR K6S8 251655Z AUTO 09002KT 40SM 15/05 A3026 RMK A01 T01500050
METAR K6S8 251555Z AUTO 11001KT 40SM 12/05 A3026 RMK A01 T01220050
METAR K7S0 251555Z AUTO 36001KT 40SM 16/09 A3028 RMK A01 T01610088
METAR K7S1 251655Z AUTO 33000KT 40SM 13/00 A3025 RMK A01 T01330000
METAR K9S5 251655Z AUTO 08000KT 25SM 16/M03 A3026 RMK A01 T01551033
METAR KRPX 251655Z AUTO 18005KT 40SM 16/04 A3018 RMK A01 T01610038
METAR KS01 251655Z AUTO 03002KT 25SM 17/07 A3027 RMK A01 T01660066
METAR KS01 251655Z AUTO 03002KT 25SM 17/07 A3027 RMK A01 T01660066
METAR KTHM 251555Z AUTO 15000KT 1 1/4SM 12/04 A3028 RMK A01 T01220044
METAR KTHM 251555Z AUTO 15000KT 1 1/4SM 12/04 A3028 RMK A01 T01220044



USA.gov is the U.S. government's official web portal to all federal, state and local government web resources and services.